sensor_id;sensor_type;location;lat;lon;timestamp;temperature;humidity
7411;DHT22;3747;48.628;9.058;2023-09-07T00:00:32;13.10;99.90
7411;DHT22;3747;48.628;9.058;2023-09-07T00:02:59;13.10;99.90
7411;DHT22;3747;48.628;9.058;2023-09-07T00:05:26;13.00;99.90
7411;DHT22;3747;48.628;9.058;2023-09-07T00:07:54;12.90;99.90
7411;DHT22;3747;48.628;9.058;2023-09-07T00:10:22;12.80;99.90
7411;DHT22;3747;48.628;9.058;2023-09-07T00:12:48;12.80;99.90
7411;DHT22;3747;48.628;9.058;2023-09-07T00:15:15;12.90;99.90
7411;DHT22;3747;48.628;9.058;2023-09-07T00:17:44;12.80;99.90
7411;DHT22;3747;48.628;9.058;2023-09-07T00:20:11;12.70;99.90
7411;DHT22;3747;48.628;9.058;2023-09-07T00:22:39;12.70;99.90
7411;DHT22;3747;48.628;9.058;2023-09-07T00:25:08;12.60;99.90
7411;DHT22;3747;48.628;9.058;2023-09-07T00:27:35;12.60;99.90
7411;DHT22;3747;48.628;9.058;2023-09-07T00:30:02;12.60;99.90
7411;DHT22;3747;48.628;9.058;2023-09-07T00:32:32;12.60;99.90
7411;DHT22;3747;48.628;9.058;2023-09-07T00:34:58;12.50;99.90
7411;DHT22;3747;48.628;9.058;2023-09-07T00:37:25;12.90;99.90
7411;DHT22;3747;48.628;9.058;2023-09-07T00:39:52;12.90;99.90
7411;DHT22;3747;48.628;9.058;2023-09-07T00:42:21;13.10;99.90
7411;DHT22;3747;48.628;9.058;2023-09-07T00:44:47;13.10;99.90
7411;DHT22;3747;48.628;9.058;2023-09-07T00:47:14;13.00;99.90
7411;DHT22;3747;48.628;9.058;2023-09-07T00:49:42;12.80;99.90
7411;DHT22;3747;48.628;9.058;2023-09-07T00:52:09;12.80;99.90
7411;DHT22;3747;48.628;9.058;2023-09-07T00:54:37;13.00;99.90
7411;DHT22;3747;48.628;9.058;2023-09-07T00:57:06;12.90;99.90
7411;DHT22;3747;48.628;9.058;2023-09-07T00:59:34;12.90;99.90
7411;DHT22;3747;48.628;9.058;2023-09-07T01:02:02;12.80;99.90
7411;DHT22;3747;48.628;9.058;2023-09-07T01:04:31;12.60;99.90
7411;DHT22;3747;48.628;9.058;2023-09-07T01:07:03;12.60;99.90
7411;DHT22;3747;48.628;9.058;2023-09-07T01:09:35;12.60;99.90
7411;DHT22;3747;48.628;9.058;2023-09-07T01:12:03;12.50;99.90
7411;DHT22;3747;48.628;9.058;2023-09-07T01:14:34;12.40;99.90
7411;DHT22;3747;48.628;9.058;2023-09-07T01:17:01;12.40;99.90
7411;DHT22;3747;48.628;9.058;2023-09-07T01:19:29;12.30;99.90
7411;DHT22;3747;48.628;9.058;2023-09-07T01:21:57;12.30;99.90
7411;DHT22;3747;48.628;9.058;2023-09-07T01:24:25;12.20;99.90
7411;DHT22;3747;48.628;9.058;2023-09-07T01:26:53;12.10;99.90
7411;DHT22;3747;48.628;9.058;2023-09-07T01:29:20;12.20;99.90
7411;DHT22;3747;48.628;9.058;2023-09-07T01:31:47;12.20;99.90
7411;DHT22;3747;48.628;9.058;2023-09-07T01:34:14;12.20;99.90
7411;DHT22;3747;48.628;9.058;2023-09-07T01:36:40;12.10;99.90
7411;DHT22;3747;48.628;9.058;2023-09-07T01:39:09;12.10;99.90
7411;DHT22;3747;48.628;9.058;2023-09-07T01:41:36;12.00;99.90
7411;DHT22;3747;48.628;9.058;2023-09-07T01:44:03;11.90;99.90
7411;DHT22;3747;48.628;9.058;2023-09-07T01:46:30;12.00;99.90
7411;DHT22;3747;48.628;9.058;2023-09-07T01:48:57;12.00;99.90
7411;DHT22;3747;48.628;9.058;2023-09-07T01:51:23;12.00;99.90
7411;DHT22;3747;48.628;9.058;2023-09-07T01:53:53;12.00;99.90
7411;DHT22;3747;48.628;9.058;2023-09-07T01:56:21;12.10;99.90
7411;DHT22;3747;48.628;9.058;2023-09-07T01:58:48;12.10;99.90
7411;DHT22;3747;48.628;9.058;2023-09-07T02:01:24;12.10;99.90
7411;DHT22;3747;48.628;9.058;2023-09-07T02:03:51;12.10;99.90
7411;DHT22;3747;48.628;9.058;2023-09-07T02:06:18;12.00;99.90
7411;DHT22;3747;48.628;9.058;2023-09-07T02:08:44;11.90;99.90
7411;DHT22;3747;48.628;9.058;2023-09-07T02:11:11;11.90;99.90
7411;DHT22;3747;48.628;9.058;2023-09-07T02:13:41;11.80;99.90
7411;DHT22;3747;48.628;9.058;2023-09-07T02:16:08;11.80;99.90
7411;DHT22;3747;48.628;9.058;2023-09-07T02:18:36;11.80;99.90
7411;DHT22;3747;48.628;9.058;2023-09-07T02:21:06;11.90;99.90
7411;DHT22;3747;48.628;9.058;2023-09-07T02:23:33;11.80;99.90
7411;DHT22;3747;48.628;9.058;2023-09-07T02:26:01;11.80;99.90
7411;DHT22;3747;48.628;9.058;2023-09-07T02:28:27;11.90;99.90
7411;DHT22;3747;48.628;9.058;2023-09-07T02:31:02;11.70;99.90
7411;DHT22;3747;48.628;9.058;2023-09-07T02:33:30;11.60;99.90
7411;DHT22;3747;48.628;9.058;2023-09-07T02:35:57;11.60;99.90
7411;DHT22;3747;48.628;9.058;2023-09-07T02:38:24;11.50;99.90
7411;DHT22;3747;48.628;9.058;2023-09-07T02:40:51;11.50;99.90
7411;DHT22;3747;48.628;9.058;2023-09-07T02:43:18;11.50;99.90
7411;DHT22;3747;48.628;9.058;2023-09-07T02:45:45;11.50;99.90
7411;DHT22;3747;48.628;9.058;2023-09-07T02:48:13;11.50;99.90
7411;DHT22;3747;48.628;9.058;2023-09-07T02:50:40;11.60;99.90
7411;DHT22;3747;48.628;9.058;2023-09-07T02:53:08;11.70;99.90
7411;DHT22;3747;48.628;9.058;2023-09-07T02:55:35;11.70;99.90
7411;DHT22;3747;48.628;9.058;2023-09-07T02:58:03;11.70;99.90
7411;DHT22;3747;48.628;9.058;2023-09-07T03:00:30;11.60;99.90
7411;DHT22;3747;48.628;9.058;2023-09-07T03:02:56;11.50;99.90
7411;DHT22;3747;48.628;9.058;2023-09-07T03:05:26;11.50;99.90
7411;DHT22;3747;48.628;9.058;2023-09-07T03:07:54;11.50;99.90
7411;DHT22;3747;48.628;9.058;2023-09-07T03:10:20;11.50;99.90
7411;DHT22;3747;48.628;9.058;2023-09-07T03:12:48;11.60;99.90
7411;DHT22;3747;48.628;9.058;2023-09-07T03:15:16;11.60;99.90
7411;DHT22;3747;48.628;9.058;2023-09-07T03:17:43;11.70;99.90
7411;DHT22;3747;48.628;9.058;2023-09-07T03:20:10;11.70;99.90
7411;DHT22;3747;48.628;9.058;2023-09-07T03:22:41;11.70;99.90
7411;DHT22;3747;48.628;9.058;2023-09-07T03:25:09;11.60;99.90
7411;DHT22;3747;48.628;9.058;2023-09-07T03:27:36;11.60;99.90
7411;DHT22;3747;48.628;9.058;2023-09-07T03:30:04;11.50;99.90
7411;DHT22;3747;48.628;9.058;2023-09-07T03:32:31;11.60;99.90
7411;DHT22;3747;48.628;9.058;2023-09-07T03:34:58;11.50;99.90
7411;DHT22;3747;48.628;9.058;2023-09-07T03:37:26;11.50;99.90
7411;DHT22;3747;48.628;9.058;2023-09-07T03:39:54;11.50;99.90
7411;DHT22;3747;48.628;9.058;2023-09-07T03:42:22;11.60;99.90
7411;DHT22;3747;48.628;9.058;2023-09-07T03:44:48;11.30;99.90
7411;DHT22;3747;48.628;9.058;2023-09-07T03:47:15;11.30;99.90
7411;DHT22;3747;48.628;9.058;2023-09-07T03:49:42;11.20;99.90
7411;DHT22;3747;48.628;9.058;2023-09-07T03:52:10;11.10;99.90
7411;DHT22;3747;48.628;9.058;2023-09-07T03:54:37;11.00;99.90
7411;DHT22;3747;48.628;9.058;2023-09-07T03:57:05;10.90;99.90
7411;DHT22;3747;48.628;9.058;2023-09-07T03:59:32;11.00;99.90
7411;DHT22;3747;48.628;9.058;2023-09-07T04:01:59;11.10;99.90
7411;DHT22;3747;48.628;9.058;2023-09-07T04:04:26;11.10;99.90
7411;DHT22;3747;48.628;9.058;2023-09-07T04:06:52;11.10;99.90
7411;DHT22;3747;48.628;9.058;2023-09-07T04:09:19;11.10;99.90
7411;DHT22;3747;48.628;9.058;2023-09-07T04:11:46;11.00;99.90
7411;DHT22;3747;48.628;9.058;2023-09-07T04:14:15;11.00;99.90
7411;DHT22;3747;48.628;9.058;2023-09-07T04:16:42;11.10;99.90
7411;DHT22;3747;48.628;9.058;2023-09-07T04:19:09;11.30;99.90
7411;DHT22;3747;48.628;9.058;2023-09-07T04:21:36;11.30;99.90
7411;DHT22;3747;48.628;9.058;2023-09-07T04:24:03;11.20;99.90
7411;DHT22;3747;48.628;9.058;2023-09-07T04:26:30;11.10;99.90
7411;DHT22;3747;48.628;9.058;2023-09-07T04:28:57;11.00;99.90
7411;DHT22;3747;48.628;9.058;2023-09-07T04:31:25;11.10;99.90
7411;DHT22;3747;48.628;9.058;2023-09-07T04:33:53;11.10;99.90
7411;DHT22;3747;48.628;9.058;2023-09-07T04:36:20;11.20;99.90
7411;DHT22;3747;48.628;9.058;2023-09-07T04:38:46;11.20;99.90
7411;DHT22;3747;48.628;9.058;2023-09-07T04:41:14;11.20;99.90
7411;DHT22;3747;48.628;9.058;2023-09-07T04:43:42;11.10;99.90
7411;DHT22;3747;48.628;9.058;2023-09-07T04:46:09;11.00;99.90
7411;DHT22;3747;48.628;9.058;2023-09-07T04:48:38;11.00;99.90
7411;DHT22;3747;48.628;9.058;2023-09-07T04:51:07;11.00;99.90
7411;DHT22;3747;48.628;9.058;2023-09-07T04:53:35;10.90;99.90
7411;DHT22;3747;48.628;9.058;2023-09-07T04:56:03;10.90;99.90
7411;DHT22;3747;48.628;9.058;2023-09-07T04:58:30;10.70;99.90
7411;DHT22;3747;48.628;9.058;2023-09-07T05:01:02;10.70;99.90
7411;DHT22;3747;48.628;9.058;2023-09-07T05:03:28;10.70;99.90
7411;DHT22;3747;48.628;9.058;2023-09-07T05:05:56;10.80;99.90
7411;DHT22;3747;48.628;9.058;2023-09-07T05:08:23;10.80;99.90
7411;DHT22;3747;48.628;9.058;2023-09-07T05:10:54;10.90;99.90
7411;DHT22;3747;48.628;9.058;2023-09-07T05:13:22;11.00;99.90
7411;DHT22;3747;48.628;9.058;2023-09-07T05:15:49;11.10;99.90
7411;DHT22;3747;48.628;9.058;2023-09-07T05:18:16;11.10;99.90
7411;DHT22;3747;48.628;9.058;2023-09-07T05:20:43;11.00;99.90
7411;DHT22;3747;48.628;9.058;2023-09-07T05:23:12;11.00;99.90
7411;DHT22;3747;48.628;9.058;2023-09-07T05:25:44;11.10;99.90
7411;DHT22;3747;48.628;9.058;2023-09-07T05:28:12;11.10;99.90
7411;DHT22;3747;48.628;9.058;2023-09-07T05:30:39;11.20;99.90
7411;DHT22;3747;48.628;9.058;2023-09-07T05:33:06;11.20;99.90
7411;DHT22;3747;48.628;9.058;2023-09-07T05:35:33;11.30;99.90
7411;DHT22;3747;48.628;9.058;2023-09-07T05:38:00;11.40;99.90
7411;DHT22;3747;48.628;9.058;2023-09-07T05:40:28;11.50;99.90
7411;DHT22;3747;48.628;9.058;2023-09-07T05:42:55;11.70;99.90
7411;DHT22;3747;48.628;9.058;2023-09-07T05:45:22;11.90;99.90
7411;DHT22;3747;48.628;9.058;2023-09-07T05:47:49;12.00;99.90
7411;DHT22;3747;48.628;9.058;2023-09-07T05:50:15;12.00;99.90
7411;DHT22;3747;48.628;9.058;2023-09-07T05:52:42;12.10;99.90
7411;DHT22;3747;48.628;9.058;2023-09-07T05:55:09;12.10;99.90
7411;DHT22;3747;48.628;9.058;2023-09-07T05:57:37;12.20;99.90
7411;DHT22;3747;48.628;9.058;2023-09-07T06:00:05;12.20;99.90
7411;DHT22;3747;48.628;9.058;2023-09-07T06:02:32;12.40;99.90
7411;DHT22;3747;48.628;9.058;2023-09-07T06:04:59;12.40;99.90
7411;DHT22;3747;48.628;9.058;2023-09-07T06:07:26;12.50;99.90
7411;DHT22;3747;48.628;9.058;2023-09-07T06:09:53;12.60;99.90
7411;DHT22;3747;48.628;9.058;2023-09-07T06:12:20;12.60;99.90
7411;DHT22;3747;48.628;9.058;2023-09-07T06:14:48;12.70;99.90
7411;DHT22;3747;48.628;9.058;2023-09-07T06:17:15;12.90;99.90
7411;DHT22;3747;48.628;9.058;2023-09-07T06:19:42;13.10;99.90
7411;DHT22;3747;48.628;9.058;2023-09-07T06:22:09;13.30;99.90
7411;DHT22;3747;48.628;9.058;2023-09-07T06:24:36;13.40;99.90
7411;DHT22;3747;48.628;9.058;2023-09-07T06:27:03;13.50;99.90
7411;DHT22;3747;48.628;9.058;2023-09-07T06:29:31;13.60;99.90
7411;DHT22;3747;48.628;9.058;2023-09-07T06:31:59;13.70;99.90
7411;DHT22;3747;48.628;9.058;2023-09-07T06:34:32;13.90;99.90
7411;DHT22;3747;48.628;9.058;2023-09-07T06:36:59;14.00;99.90
7411;DHT22;3747;48.628;9.058;2023-09-07T06:39:26;14.20;99.90
7411;DHT22;3747;48.628;9.058;2023-09-07T06:41:53;14.50;99.90
7411;DHT22;3747;48.628;9.058;2023-09-07T06:44:21;14.70;99.90
7411;DHT22;3747;48.628;9.058;2023-09-07T06:46:49;14.90;99.90
7411;DHT22;3747;48.628;9.058;2023-09-07T06:49:20;15.10;99.90
7411;DHT22;3747;48.628;9.058;2023-09-07T06:51:48;15.20;99.90
7411;DHT22;3747;48.628;9.058;2023-09-07T06:54:14;15.40;99.90
7411;DHT22;3747;48.628;9.058;2023-09-07T06:56:41;15.70;99.90
7411;DHT22;3747;48.628;9.058;2023-09-07T06:59:08;16.00;99.90
7411;DHT22;3747;48.628;9.058;2023-09-07T07:01:35;16.80;99.90
7411;DHT22;3747;48.628;9.058;2023-09-07T07:04:02;17.70;99.90
7411;DHT22;3747;48.628;9.058;2023-09-07T07:06:30;18.60;99.90
7411;DHT22;3747;48.628;9.058;2023-09-07T07:08:57;19.50;99.90
7411;DHT22;3747;48.628;9.058;2023-09-07T07:11:24;20.00;99.90
7411;DHT22;3747;48.628;9.058;2023-09-07T07:13:51;20.60;99.90
7411;DHT22;3747;48.628;9.058;2023-09-07T07:16:18;21.40;99.90
7411;DHT22;3747;48.628;9.058;2023-09-07T07:18:45;21.90;99.90
7411;DHT22;3747;48.628;9.058;2023-09-07T07:21:12;22.00;99.90
7411;DHT22;3747;48.628;9.058;2023-09-07T07:23:42;22.40;99.90
7411;DHT22;3747;48.628;9.058;2023-09-07T07:26:09;22.70;99.90
7411;DHT22;3747;48.628;9.058;2023-09-07T07:28:35;22.80;99.90
7411;DHT22;3747;48.628;9.058;2023-09-07T07:31:07;23.00;99.90
7411;DHT22;3747;48.628;9.058;2023-09-07T07:33:35;23.50;99.90
7411;DHT22;3747;48.628;9.058;2023-09-07T07:36:03;23.50;99.90
7411;DHT22;3747;48.628;9.058;2023-09-07T07:38:30;23.70;99.90
7411;DHT22;3747;48.628;9.058;2023-09-07T07:40:59;23.90;99.90
7411;DHT22;3747;48.628;9.058;2023-09-07T07:43:28;23.60;99.90
7411;DHT22;3747;48.628;9.058;2023-09-07T07:45:56;23.50;99.90
7411;DHT22;3747;48.628;9.058;2023-09-07T07:48:23;23.50;99.90
7411;DHT22;3747;48.628;9.058;2023-09-07T07:50:50;23.70;99.90
7411;DHT22;3747;48.628;9.058;2023-09-07T07:53:30;23.90;99.90
7411;DHT22;3747;48.628;9.058;2023-09-07T07:55:59;23.80;99.90
7411;DHT22;3747;48.628;9.058;2023-09-07T07:58:25;24.20;99.90
7411;DHT22;3747;48.628;9.058;2023-09-07T08:00:52;24.70;99.90
7411;DHT22;3747;48.628;9.058;2023-09-07T08:03:23;24.30;99.90
7411;DHT22;3747;48.628;9.058;2023-09-07T08:05:50;24.90;99.90
7411;DHT22;3747;48.628;9.058;2023-09-07T08:08:18;25.00;99.90
7411;DHT22;3747;48.628;9.058;2023-09-07T08:10:45;25.20;99.90
7411;DHT22;3747;48.628;9.058;2023-09-07T08:13:13;24.80;99.90
7411;DHT22;3747;48.628;9.058;2023-09-07T08:15:41;24.80;99.90
7411;DHT22;3747;48.628;9.058;2023-09-07T08:18:09;25.10;99.90
7411;DHT22;3747;48.628;9.058;2023-09-07T08:20:36;25.10;99.90
7411;DHT22;3747;48.628;9.058;2023-09-07T08:23:05;25.20;99.90
7411;DHT22;3747;48.628;9.058;2023-09-07T08:25:34;25.00;99.90
7411;DHT22;3747;48.628;9.058;2023-09-07T08:28:00;25.10;99.90
7411;DHT22;3747;48.628;9.058;2023-09-07T08:30:33;25.20;99.90
7411;DHT22;3747;48.628;9.058;2023-09-07T08:33:00;25.50;99.90
7411;DHT22;3747;48.628;9.058;2023-09-07T08:35:28;25.40;99.90
7411;DHT22;3747;48.628;9.058;2023-09-07T08:37:55;25.50;99.90
7411;DHT22;3747;48.628;9.058;2023-09-07T08:40:24;25.50;99.90
7411;DHT22;3747;48.628;9.058;2023-09-07T08:42:52;25.90;99.90
7411;DHT22;3747;48.628;9.058;2023-09-07T08:45:21;26.20;99.90
7411;DHT22;3747;48.628;9.058;2023-09-07T08:47:50;26.20;99.90
7411;DHT22;3747;48.628;9.058;2023-09-07T08:50:18;26.20;99.90
7411;DHT22;3747;48.628;9.058;2023-09-07T08:52:46;26.40;99.90
7411;DHT22;3747;48.628;9.058;2023-09-07T08:55:15;26.90;99.90
7411;DHT22;3747;48.628;9.058;2023-09-07T08:57:42;26.60;99.90
7411;DHT22;3747;48.628;9.058;2023-09-07T09:00:10;27.00;99.90
7411;DHT22;3747;48.628;9.058;2023-09-07T09:02:41;26.40;99.90
7411;DHT22;3747;48.628;9.058;2023-09-07T09:05:10;26.70;99.90
7411;DHT22;3747;48.628;9.058;2023-09-07T09:07:39;26.80;99.90
7411;DHT22;3747;48.628;9.058;2023-09-07T09:10:08;27.10;99.90
7411;DHT22;3747;48.628;9.058;2023-09-07T09:12:35;27.30;99.90
7411;DHT22;3747;48.628;9.058;2023-09-07T09:15:02;27.70;99.90
7411;DHT22;3747;48.628;9.058;2023-09-07T09:17:29;27.50;99.90
7411;DHT22;3747;48.628;9.058;2023-09-07T09:19:56;27.00;99.90
7411;DHT22;3747;48.628;9.058;2023-09-07T09:22:24;27.10;99.90
7411;DHT22;3747;48.628;9.058;2023-09-07T09:24:51;27.40;99.90
7411;DHT22;3747;48.628;9.058;2023-09-07T09:27:18;27.40;99.90
7411;DHT22;3747;48.628;9.058;2023-09-07T09:29:45;27.80;99.90
7411;DHT22;3747;48.628;9.058;2023-09-07T09:32:13;27.70;99.90
7411;DHT22;3747;48.628;9.058;2023-09-07T09:34:43;27.80;99.90
7411;DHT22;3747;48.628;9.058;2023-09-07T09:37:15;27.80;99.90
7411;DHT22;3747;48.628;9.058;2023-09-07T09:39:43;28.20;99.90
7411;DHT22;3747;48.628;9.058;2023-09-07T09:42:16;28.30;99.90
7411;DHT22;3747;48.628;9.058;2023-09-07T09:44:43;28.60;99.90
7411;DHT22;3747;48.628;9.058;2023-09-07T09:47:13;29.00;99.90
7411;DHT22;3747;48.628;9.058;2023-09-07T09:49:41;28.60;99.90
7411;DHT22;3747;48.628;9.058;2023-09-07T09:52:08;28.60;99.90
7411;DHT22;3747;48.628;9.058;2023-09-07T09:54:38;28.80;99.90
7411;DHT22;3747;48.628;9.058;2023-09-07T09:57:06;29.10;99.90
7411;DHT22;3747;48.628;9.058;2023-09-07T09:59:34;28.90;99.90
7411;DHT22;3747;48.628;9.058;2023-09-07T10:02:02;28.50;99.90
7411;DHT22;3747;48.628;9.058;2023-09-07T10:04:29;28.40;99.90
7411;DHT22;3747;48.628;9.058;2023-09-07T10:06:59;28.20;99.90
7411;DHT22;3747;48.628;9.058;2023-09-07T10:09:29;28.40;99.90
7411;DHT22;3747;48.628;9.058;2023-09-07T10:11:58;28.90;99.90
7411;DHT22;3747;48.628;9.058;2023-09-07T10:14:26;28.90;99.90
7411;DHT22;3747;48.628;9.058;2023-09-07T10:17:03;29.00;99.90
7411;DHT22;3747;48.628;9.058;2023-09-07T10:19:31;28.90;99.90
7411;DHT22;3747;48.628;9.058;2023-09-07T10:21:59;29.10;99.90
7411;DHT22;3747;48.628;9.058;2023-09-07T10:24:27;29.30;99.90
7411;DHT22;3747;48.628;9.058;2023-09-07T10:26:59;29.40;99.90
7411;DHT22;3747;48.628;9.058;2023-09-07T10:29:27;29.50;99.90
7411;DHT22;3747;48.628;9.058;2023-09-07T10:31:54;29.40;99.90
7411;DHT22;3747;48.628;9.058;2023-09-07T10:34:21;30.00;99.90
7411;DHT22;3747;48.628;9.058;2023-09-07T10:36:56;30.10;99.90
7411;DHT22;3747;48.628;9.058;2023-09-07T10:39:23;30.10;99.90
7411;DHT22;3747;48.628;9.058;2023-09-07T10:41:49;29.90;99.90
7411;DHT22;3747;48.628;9.058;2023-09-07T10:44:27;30.00;99.90
7411;DHT22;3747;48.628;9.058;2023-09-07T10:46:54;30.00;99.90
7411;DHT22;3747;48.628;9.058;2023-09-07T10:49:21;29.90;99.90
7411;DHT22;3747;48.628;9.058;2023-09-07T10:51:48;29.90;99.90
7411;DHT22;3747;48.628;9.058;2023-09-07T10:54:16;30.10;99.90
7411;DHT22;3747;48.628;9.058;2023-09-07T10:56:44;30.80;99.90
7411;DHT22;3747;48.628;9.058;2023-09-07T10:59:13;30.60;99.90
7411;DHT22;3747;48.628;9.058;2023-09-07T11:01:43;30.30;99.90
7411;DHT22;3747;48.628;9.058;2023-09-07T11:04:10;30.30;99.90
7411;DHT22;3747;48.628;9.058;2023-09-07T11:06:38;30.80;99.90
7411;DHT22;3747;48.628;9.058;2023-09-07T11:09:20;30.70;99.90
7411;DHT22;3747;48.628;9.058;2023-09-07T11:11:47;31.20;99.90
7411;DHT22;3747;48.628;9.058;2023-09-07T11:14:14;30.40;99.90
7411;DHT22;3747;48.628;9.058;2023-09-07T11:16:42;30.80;99.90
7411;DHT22;3747;48.628;9.058;2023-09-07T11:19:10;30.90;99.90
7411;DHT22;3747;48.628;9.058;2023-09-07T11:21:37;30.70;99.90
7411;DHT22;3747;48.628;9.058;2023-09-07T11:24:04;30.60;99.90
7411;DHT22;3747;48.628;9.058;2023-09-07T11:26:41;30.30;99.90
7411;DHT22;3747;48.628;9.058;2023-09-07T11:29:08;30.50;99.90
7411;DHT22;3747;48.628;9.058;2023-09-07T11:31:35;31.10;99.90
7411;DHT22;3747;48.628;9.058;2023-09-07T11:34:08;31.90;99.90
7411;DHT22;3747;48.628;9.058;2023-09-07T11:36:35;31.70;99.90
7411;DHT22;3747;48.628;9.058;2023-09-07T11:39:01;31.80;99.90
7411;DHT22;3747;48.628;9.058;2023-09-07T11:41:31;31.80;99.90
7411;DHT22;3747;48.628;9.058;2023-09-07T11:43:58;32.10;99.90
7411;DHT22;3747;48.628;9.058;2023-09-07T11:46:27;32.60;99.80
7411;DHT22;3747;48.628;9.058;2023-09-07T11:48:55;32.50;99.90
7411;DHT22;3747;48.628;9.058;2023-09-07T11:51:23;32.70;99.10
7411;DHT22;3747;48.628;9.058;2023-09-07T11:53:50;32.40;99.20
7411;DHT22;3747;48.628;9.058;2023-09-07T11:56:17;32.00;99.20
7411;DHT22;3747;48.628;9.058;2023-09-07T11:58:44;32.10;99.60
7411;DHT22;3747;48.628;9.058;2023-09-07T12:01:11;32.10;99.40
7411;DHT22;3747;48.628;9.058;2023-09-07T12:03:40;32.40;99.20
7411;DHT22;3747;48.628;9.058;2023-09-07T12:06:08;32.50;99.10
7411;DHT22;3747;48.628;9.058;2023-09-07T12:08:37;32.50;98.60
7411;DHT22;3747;48.628;9.058;2023-09-07T12:11:05;32.70;98.70
7411;DHT22;3747;48.628;9.058;2023-09-07T12:13:31;32.30;98.80
7411;DHT22;3747;48.628;9.058;2023-09-07T12:15:58;32.50;98.40
7411;DHT22;3747;48.628;9.058;2023-09-07T12:18:26;32.70;98.30
7411;DHT22;3747;48.628;9.058;2023-09-07T12:20:53;32.20;99.10
7411;DHT22;3747;48.628;9.058;2023-09-07T12:23:20;32.60;98.30
7411;DHT22;3747;48.628;9.058;2023-09-07T12:25:51;32.00;98.70
7411;DHT22;3747;48.628;9.058;2023-09-07T12:28:20;32.20;98.20
7411;DHT22;3747;48.628;9.058;2023-09-07T12:30:47;32.40;99.30
7411;DHT22;3747;48.628;9.058;2023-09-07T12:33:14;32.40;98.30
7411;DHT22;3747;48.628;9.058;2023-09-07T12:35:42;32.90;98.80
7411;DHT22;3747;48.628;9.058;2023-09-07T12:38:10;33.10;98.10
7411;DHT22;3747;48.628;9.058;2023-09-07T12:40:44;33.30;97.30
7411;DHT22;3747;48.628;9.058;2023-09-07T12:43:14;33.30;97.20
7411;DHT22;3747;48.628;9.058;2023-09-07T12:45:42;33.60;97.40
7411;DHT22;3747;48.628;9.058;2023-09-07T12:48:10;33.20;97.20
7411;DHT22;3747;48.628;9.058;2023-09-07T12:50:37;33.30;96.80
7411;DHT22;3747;48.628;9.058;2023-09-07T12:53:04;33.00;97.00
7411;DHT22;3747;48.628;9.058;2023-09-07T12:55:31;32.70;96.60
7411;DHT22;3747;48.628;9.058;2023-09-07T12:57:58;33.20;96.60
7411;DHT22;3747;48.628;9.058;2023-09-07T13:00:27;33.20;96.30
7411;DHT22;3747;48.628;9.058;2023-09-07T13:02:56;33.30;96.60
7411;DHT22;3747;48.628;9.058;2023-09-07T13:05:23;33.00;97.10
7411;DHT22;3747;48.628;9.058;2023-09-07T13:07:50;33.30;96.60
7411;DHT22;3747;48.628;9.058;2023-09-07T13:10:19;33.70;95.50
7411;DHT22;3747;48.628;9.058;2023-09-07T13:12:47;34.00;95.40
7411;DHT22;3747;48.628;9.058;2023-09-07T13:15:14;33.80;95.80
7411;DHT22;3747;48.628;9.058;2023-09-07T13:17:46;33.90;94.70
7411;DHT22;3747;48.628;9.058;2023-09-07T13:20:14;34.00;94.90
7411;DHT22;3747;48.628;9.058;2023-09-07T13:22:41;34.10;94.10
7411;DHT22;3747;48.628;9.058;2023-09-07T13:25:09;33.80;94.10
7411;DHT22;3747;48.628;9.058;2023-09-07T13:27:36;33.90;93.70
7411;DHT22;3747;48.628;9.058;2023-09-07T13:30:04;34.10;93.60
7411;DHT22;3747;48.628;9.058;2023-09-07T13:32:31;34.10;93.10
7411;DHT22;3747;48.628;9.058;2023-09-07T13:35:01;34.20;92.20
7411;DHT22;3747;48.628;9.058;2023-09-07T13:37:29;34.50;92.00
7411;DHT22;3747;48.628;9.058;2023-09-07T13:39:57;34.90;92.90
7411;DHT22;3747;48.628;9.058;2023-09-07T13:42:25;34.70;91.00
7411;DHT22;3747;48.628;9.058;2023-09-07T13:44:52;34.10;91.40
7411;DHT22;3747;48.628;9.058;2023-09-07T13:47:20;33.70;91.20
7411;DHT22;3747;48.628;9.058;2023-09-07T13:49:47;34.10;91.10
7411;DHT22;3747;48.628;9.058;2023-09-07T13:52:16;33.60;91.00
7411;DHT22;3747;48.628;9.058;2023-09-07T13:54:43;34.10;90.20
7411;DHT22;3747;48.628;9.058;2023-09-07T13:57:10;34.30;90.50
7411;DHT22;3747;48.628;9.058;2023-09-07T13:59:37;34.40;89.70
7411;DHT22;3747;48.628;9.058;2023-09-07T14:02:04;33.90;90.00
7411;DHT22;3747;48.628;9.058;2023-09-07T14:04:31;33.80;89.80
7411;DHT22;3747;48.628;9.058;2023-09-07T14:06:58;34.30;90.00
7411;DHT22;3747;48.628;9.058;2023-09-07T14:09:26;34.40;89.70
7411;DHT22;3747;48.628;9.058;2023-09-07T14:11:53;34.30;90.20
7411;DHT22;3747;48.628;9.058;2023-09-07T14:14:20;34.20;89.60
7411;DHT22;3747;48.628;9.058;2023-09-07T14:16:47;34.40;88.30
7411;DHT22;3747;48.628;9.058;2023-09-07T14:19:15;34.20;88.30
7411;DHT22;3747;48.628;9.058;2023-09-07T14:21:42;34.10;86.90
7411;DHT22;3747;48.628;9.058;2023-09-07T14:24:09;33.90;88.50
7411;DHT22;3747;48.628;9.058;2023-09-07T14:26:37;34.20;87.80
7411;DHT22;3747;48.628;9.058;2023-09-07T14:29:04;34.40;86.80
7411;DHT22;3747;48.628;9.058;2023-09-07T14:31:31;34.40;87.00
7411;DHT22;3747;48.628;9.058;2023-09-07T14:33:59;34.90;87.70
7411;DHT22;3747;48.628;9.058;2023-09-07T14:36:26;34.90;86.10
7411;DHT22;3747;48.628;9.058;2023-09-07T14:38:53;35.00;86.50
7411;DHT22;3747;48.628;9.058;2023-09-07T14:41:19;34.50;89.20
7411;DHT22;3747;48.628;9.058;2023-09-07T14:43:50;34.80;90.00
7411;DHT22;3747;48.628;9.058;2023-09-07T14:46:17;34.40;86.90
7411;DHT22;3747;48.628;9.058;2023-09-07T14:48:44;34.70;87.00
7411;DHT22;3747;48.628;9.058;2023-09-07T14:51:15;34.60;86.40
7411;DHT22;3747;48.628;9.058;2023-09-07T14:53:43;34.50;88.30
7411;DHT22;3747;48.628;9.058;2023-09-07T14:56:12;34.70;88.00
7411;DHT22;3747;48.628;9.058;2023-09-07T14:58:40;34.50;88.10
7411;DHT22;3747;48.628;9.058;2023-09-07T15:01:09;34.80;87.10
7411;DHT22;3747;48.628;9.058;2023-09-07T15:03:37;35.00;85.60
7411;DHT22;3747;48.628;9.058;2023-09-07T15:06:06;35.10;85.90
7411;DHT22;3747;48.628;9.058;2023-09-07T15:08:33;35.00;82.60
7411;DHT22;3747;48.628;9.058;2023-09-07T15:11:00;35.20;82.20
7411;DHT22;3747;48.628;9.058;2023-09-07T15:13:29;34.90;82.30
7411;DHT22;3747;48.628;9.058;2023-09-07T15:16:04;35.20;81.40
7411;DHT22;3747;48.628;9.058;2023-09-07T15:18:35;34.90;82.80
7411;DHT22;3747;48.628;9.058;2023-09-07T15:21:02;34.70;82.70
7411;DHT22;3747;48.628;9.058;2023-09-07T15:23:29;34.60;83.10
7411;DHT22;3747;48.628;9.058;2023-09-07T15:25:56;34.80;82.20
7411;DHT22;3747;48.628;9.058;2023-09-07T15:28:23;34.90;82.00
7411;DHT22;3747;48.628;9.058;2023-09-07T15:30:50;34.60;82.60
7411;DHT22;3747;48.628;9.058;2023-09-07T15:33:17;34.30;82.30
7411;DHT22;3747;48.628;9.058;2023-09-07T15:35:45;34.00;81.30
7411;DHT22;3747;48.628;9.058;2023-09-07T15:38:12;34.20;81.50
7411;DHT22;3747;48.628;9.058;2023-09-07T15:40:39;34.20;80.70
7411;DHT22;3747;48.628;9.058;2023-09-07T15:43:06;34.50;81.50
7411;DHT22;3747;48.628;9.058;2023-09-07T15:45:37;34.60;77.20
7411;DHT22;3747;48.628;9.058;2023-09-07T15:48:05;34.20;78.40
7411;DHT22;3747;48.628;9.058;2023-09-07T15:50:32;34.00;77.90
7411;DHT22;3747;48.628;9.058;2023-09-07T15:53:00;33.90;77.60
7411;DHT22;3747;48.628;9.058;2023-09-07T15:55:29;34.10;75.90
7411;DHT22;3747;48.628;9.058;2023-09-07T15:57:56;33.90;75.60
7411;DHT22;3747;48.628;9.058;2023-09-07T16:00:23;34.10;73.90
7411;DHT22;3747;48.628;9.058;2023-09-07T16:02:50;34.00;75.00
7411;DHT22;3747;48.628;9.058;2023-09-07T16:05:17;34.10;74.40